createdAt,value
2023-03-21T00:00:46.200Z,61.96
2023-03-21T00:06:17.926Z,62.14
2023-03-21T00:11:50.172Z,62.17
2023-03-21T00:17:21.598Z,62.12
2023-03-21T00:22:53.669Z,62.05
2023-03-21T00:28:25.130Z,62.13
2023-03-21T00:33:57.741Z,62.17
2023-03-21T00:39:29.476Z,62.20
2023-03-21T00:45:01.535Z,62.25
2023-03-21T00:50:35.982Z,62.25
2023-03-21T00:56:07.631Z,62.28
2023-03-21T01:01:39.396Z,62.30
2023-03-21T01:07:11.055Z,62.28
2023-03-21T01:12:43.170Z,62.30
2023-03-21T01:18:15.317Z,62.26
2023-03-21T01:23:47.518Z,62.32
2023-03-21T01:29:18.934Z,62.28
2023-03-21T01:34:51.700Z,62.27
2023-03-21T01:42:45.969Z,62.25
2023-03-21T01:48:17.689Z,62.17
2023-03-21T01:53:49.312Z,62.10
2023-03-21T01:59:20.857Z,62.15
2023-03-21T02:04:52.636Z,62.12
2023-03-21T02:10:25.071Z,62.13
2023-03-21T02:15:57.139Z,62.13
2023-03-21T02:21:29.015Z,62.12
2023-03-21T02:27:04.235Z,62.14
2023-03-21T02:32:37.767Z,62.23
2023-03-21T02:38:04.397Z,62.22
2023-03-21T02:43:36.040Z,62.41
2023-03-21T02:49:08.025Z,62.44
2023-03-21T02:54:48.110Z,62.54
2023-03-21T03:00:16.693Z,62.57
2023-03-21T03:05:43.451Z,62.55
2023-03-21T03:11:15.738Z,62.55
2023-03-21T03:16:47.912Z,62.68
2023-03-21T03:22:19.891Z,62.67
2023-03-21T03:27:52.213Z,62.76
2023-03-21T03:33:24.444Z,62.84
2023-03-21T03:38:56.017Z,62.88
2023-03-21T03:44:28.246Z,62.95
2023-03-21T03:50:00.218Z,62.95
2023-03-21T03:55:32.401Z,63.05
2023-03-21T04:01:04.317Z,63.09
2023-03-21T04:06:36.364Z,63.14
2023-03-21T04:12:08.190Z,63.21
2023-03-21T04:17:40.142Z,63.24
2023-03-21T04:23:12.078Z,63.21
2023-03-21T04:28:43.803Z,63.21
2023-03-21T04:34:15.787Z,63.19
2023-03-21T04:39:47.826Z,63.21
2023-03-21T04:45:20.406Z,63.26
2023-03-21T04:50:52.289Z,63.26
2023-03-21T04:56:24.774Z,63.27
2023-03-21T05:01:57.253Z,63.31
2023-03-21T05:07:29.362Z,63.26
2023-03-21T05:13:01.095Z,63.35
2023-03-21T05:18:33.066Z,63.36
2023-03-21T05:24:05.202Z,63.36
2023-03-21T05:29:36.525Z,63.45
2023-03-21T05:35:08.118Z,63.62
2023-03-21T05:40:40.326Z,63.66
2023-03-21T05:46:12.216Z,63.69
2023-03-21T05:51:44.382Z,63.68
2023-03-21T05:57:17.299Z,63.80
2023-03-21T06:02:48.962Z,63.82
2023-03-21T06:08:20.589Z,63.93
2023-03-21T06:13:52.236Z,63.91
2023-03-21T06:19:24.268Z,63.93
2023-03-21T06:24:55.826Z,63.93
2023-03-21T06:30:27.935Z,63.79
2023-03-21T06:36:00.581Z,63.75
2023-03-21T06:41:32.558Z,63.56
2023-03-21T06:47:04.831Z,63.53
2023-03-21T06:52:37.569Z,63.29
2023-03-21T06:58:09.881Z,63.25
2023-03-21T07:03:41.874Z,63.06
2023-03-21T07:09:13.803Z,62.94
2023-03-21T07:14:45.953Z,62.59
2023-03-21T07:20:18.111Z,62.39
2023-03-21T07:25:49.855Z,62.07
2023-03-21T07:31:21.982Z,61.88
2023-03-21T07:36:53.960Z,61.53
2023-03-21T07:42:26.055Z,61.35
2023-03-21T07:47:58.311Z,60.91
2023-03-21T07:53:30.494Z,60.80
2023-03-21T07:59:02.746Z,60.29
2023-03-21T08:04:35.108Z,59.96
2023-03-21T08:10:07.528Z,59.57
2023-03-21T08:15:39.813Z,59.45
2023-03-21T08:21:11.746Z,58.77
2023-03-21T08:26:43.847Z,58.54
2023-03-21T08:32:15.875Z,57.96
2023-03-21T08:37:47.922Z,57.63
2023-03-21T08:43:20.323Z,57.20
2023-03-21T08:48:52.336Z,56.63
2023-03-21T08:54:24.134Z,56.20
2023-03-21T08:59:56.063Z,55.55
2023-03-21T09:05:33.982Z,55.27
2023-03-21T09:11:06.706Z,54.62
2023-03-21T09:16:38.915Z,54.36
2023-03-21T09:22:11.100Z,53.44
2023-03-21T09:27:45.850Z,52.82
2023-03-21T09:38:48.622Z,51.32
2023-03-21T09:44:21.324Z,51.08
2023-03-21T09:49:56.499Z,50.59
2023-03-21T09:55:24.720Z,49.08
2023-03-21T10:00:56.909Z,48.84
2023-03-21T10:06:28.697Z,47.48
2023-03-21T10:12:00.900Z,47.11
2023-03-21T10:17:33.301Z,46.96
2023-03-21T10:23:05.353Z,46.44
2023-03-21T10:34:07.031Z,45.93
2023-03-21T10:45:08.348Z,45.11
2023-03-21T10:50:40.752Z,44.73
2023-03-21T11:04:03.298Z,43.64
2023-03-21T11:09:35.113Z,43.77
2023-03-21T11:15:07.174Z,43.47
2023-03-21T11:20:38.812Z,43.72
2023-03-21T11:26:10.550Z,43.16
2023-03-21T11:42:42.246Z,41.09
2023-03-21T11:48:14.510Z,41.80
2023-03-21T11:53:45.905Z,42.84
2023-03-21T11:59:17.699Z,42.88
2023-03-21T12:04:49.711Z,43.13
2023-03-21T12:10:21.486Z,42.78
2023-03-21T12:15:55.440Z,42.73
2023-03-21T12:21:24.820Z,42.68
2023-03-21T12:26:58.169Z,42.62
2023-03-21T12:32:29.095Z,42.75
2023-03-21T12:38:01.030Z,42.90
2023-03-21T12:43:32.657Z,42.73
2023-03-21T12:49:04.641Z,40.68
2023-03-21T12:54:36.417Z,41.35
2023-03-21T13:00:08.233Z,42.23
2023-03-21T13:05:39.993Z,42.50
2023-03-21T13:11:11.496Z,42.41
2023-03-21T13:16:43.507Z,42.55
2023-03-21T13:22:15.598Z,41.49
2023-03-21T13:27:47.431Z,41.47
2023-03-21T13:33:19.289Z,40.78
2023-03-21T13:38:51.036Z,41.17
2023-03-21T13:44:23.026Z,41.47
2023-03-21T13:49:54.731Z,41.50
2023-03-21T13:55:26.550Z,40.54
2023-03-21T14:06:28.286Z,40.76
2023-03-21T14:12:07.084Z,40.05
2023-03-21T14:17:34.076Z,38.92
2023-03-21T14:23:06.385Z,39.30
2023-03-21T14:28:38.031Z,40.16
2023-03-21T14:34:09.887Z,40.65
2023-03-21T14:39:41.796Z,41.32
2023-03-21T14:45:14.094Z,41.73
2023-03-21T14:50:46.221Z,42.13
2023-03-21T14:56:18.049Z,42.33
2023-03-21T15:01:50.190Z,42.76
2023-03-21T15:07:22.364Z,43.02
2023-03-21T15:12:54.269Z,43.22
2023-03-21T15:18:26.714Z,43.33
2023-03-21T15:23:59.024Z,43.54
2023-03-21T15:29:31.456Z,43.26
2023-03-21T15:35:03.284Z,43.33
2023-03-21T15:40:35.083Z,43.34
2023-03-21T15:46:06.776Z,43.29
2023-03-21T15:51:38.601Z,43.47
2023-03-21T15:57:10.547Z,43.72
2023-03-21T16:02:42.808Z,43.88
2023-03-21T16:08:14.102Z,44.13
2023-03-21T16:13:46.157Z,44.22
2023-03-21T16:19:18.083Z,44.46
2023-03-21T16:24:49.753Z,44.54
2023-03-21T16:30:21.266Z,44.53
2023-03-21T16:35:52.991Z,44.67
2023-03-21T16:41:24.379Z,44.85
2023-03-21T16:46:57.000Z,45.08
2023-03-21T16:52:28.990Z,45.14
2023-03-21T16:58:01.054Z,45.44
2023-03-21T17:03:32.738Z,45.54
2023-03-21T17:09:04.260Z,45.78
2023-03-21T17:14:35.586Z,45.88
2023-03-21T17:20:07.234Z,46.07
2023-03-21T17:25:39.069Z,46.14
2023-03-21T17:31:10.988Z,46.35
2023-03-21T17:36:42.720Z,46.48
2023-03-21T17:42:14.496Z,46.69
2023-03-21T17:47:46.455Z,46.80
2023-03-21T17:53:18.766Z,47.07
2023-03-21T18:04:20.342Z,47.50
2023-03-21T18:09:52.424Z,47.70
2023-03-21T18:15:24.206Z,48.00
2023-03-21T18:20:57.943Z,48.11
2023-03-21T18:26:27.492Z,48.27
2023-03-21T18:32:06.274Z,48.35
2023-03-21T18:37:31.020Z,48.63
2023-03-21T18:43:56.100Z,48.77
2023-03-21T18:48:35.722Z,49.05
2023-03-21T18:54:07.166Z,49.19
2023-03-21T18:59:38.731Z,49.45
2023-03-21T19:05:10.503Z,49.59
2023-03-21T19:10:42.465Z,49.77
2023-03-21T19:16:14.350Z,49.95
2023-03-21T19:21:46.388Z,50.20
2023-03-21T19:27:18.657Z,50.27
2023-03-21T19:32:50.309Z,50.40
2023-03-21T19:38:22.162Z,50.53
2023-03-21T19:43:56.393Z,50.74
2023-03-21T19:49:37.033Z,50.79
2023-03-21T19:54:57.226Z,51.04
2023-03-21T19:57:21.541Z,0.00
2023-03-21T20:02:53.354Z,51.07
2023-03-21T20:08:25.157Z,51.14
2023-03-21T20:13:57.326Z,51.26
2023-03-21T20:19:29.958Z,51.35
2023-03-21T20:25:02.395Z,51.53
2023-03-21T20:30:34.520Z,51.62
2023-03-21T20:41:38.217Z,51.86
2023-03-21T20:47:09.895Z,52.04
2023-03-21T20:53:09.814Z,52.15
2023-03-21T20:58:36.724Z,52.39
2023-03-21T21:03:45.734Z,52.63
2023-03-21T21:09:17.435Z,53.02
2023-03-21T21:14:49.273Z,53.19
2023-03-21T21:20:21.110Z,53.47
2023-03-21T21:25:52.663Z,53.59
2023-03-21T21:31:24.566Z,54.03
2023-03-21T21:36:56.250Z,54.20
2023-03-21T21:42:27.822Z,54.43
2023-03-21T21:47:59.844Z,54.94
2023-03-21T21:53:31.465Z,55.14
2023-03-21T21:59:03.691Z,55.56
2023-03-21T22:04:35.614Z,55.68
2023-03-21T22:10:07.603Z,56.07
2023-03-21T22:15:39.967Z,56.23
2023-03-21T22:21:11.926Z,56.14
2023-03-21T22:26:43.598Z,56.11
2023-03-21T22:32:15.351Z,56.14
2023-03-21T22:37:47.198Z,56.14
2023-03-21T22:43:20.021Z,56.17
2023-03-21T22:48:52.267Z,56.22
2023-03-21T22:54:24.336Z,56.17
2023-03-21T22:59:56.245Z,56.29
2023-03-21T23:05:28.474Z,56.33
2023-03-21T23:11:00.241Z,56.45
2023-03-21T23:16:32.183Z,56.55
2023-03-21T23:22:03.899Z,56.72
2023-03-21T23:27:35.898Z,56.94
2023-03-21T23:33:07.618Z,56.99
2023-03-21T23:38:39.626Z,57.20
2023-03-21T23:44:11.515Z,57.41
2023-03-21T23:49:44.034Z,57.73
2023-03-21T23:55:16.067Z,57.90
